Time,TemperatureF,DewpointF,PressureIn,WindDirection,WindDirectionDegrees,WindSpeedMPH,WindSpeedGustMPH,Humidity,HourlyPrecipIn,Conditions,Clouds,dailyrainin,SoftwareType,DateUTC
2013-03-04 00:03:00,33.8,24.7,30.09,NE,45,0.6,1.1,69,0.00,,,0.00,WUHU216HW,2013-03-04 08:03:00,
2013-03-04 00:08:00,33.8,25.0,30.08,NW,324,0.4,1.8,70,0.00,,,0.00,WUHU216HW,2013-03-04 08:08:00,
2013-03-04 00:13:00,33.8,25.0,30.08,North,359,0.6,1.8,70,0.00,,,0.00,WUHU216HW,2013-03-04 08:13:00,
2013-03-04 00:19:00,34.0,25.2,30.08,North,0,0.4,1.1,70,0.00,,,0.00,WUHU216HW,2013-03-04 08:19:00,
2013-03-04 00:24:00,34.2,25.4,30.08,ENE,68,0.3,1.1,70,0.00,,,0.00,WUHU216HW,2013-03-04 08:24:00,
2013-03-04 00:29:00,34.4,25.2,30.08,East,90,0.4,1.1,69,0.00,,,0.00,WUHU216HW,2013-03-04 08:29:00,
2013-03-04 00:34:00,34.6,25.0,30.08,NE,45,1.6,1.6,68,0.00,,,0.00,WUHU216HW,2013-03-04 08:34:00,
2013-03-04 00:39:00,34.9,23.9,30.08,NNE,15,0.8,3.1,64,0.00,,,0.00,WUHU216HW,2013-03-04 08:39:00,
2013-03-04 00:44:00,35.1,23.8,30.08,NE,55,1.0,3.1,63,0.00,,,0.00,WUHU216HW,2013-03-04 08:44:00,
2013-03-04 00:47:00,35.1,24.8,30.07,ENE,68,1.1,2.0,66,0.00,,,0.00,WUHU216HW,2013-03-04 08:47:00,
2013-03-04 00:53:00,35.3,25.0,30.07,ENE,63,0.6,2.0,66,0.00,,,0.00,WUHU216HW,2013-03-04 08:53:00,
2013-03-04 00:58:00,35.3,25.4,30.07,ESE,113,0.0,1.1,67,0.00,,,0.00,WUHU216HW,2013-03-04 08:58:00,
2013-03-04 01:04:00,35.5,25.9,30.06,ENE,68,0.9,1.1,68,0.00,,,0.00,WUHU216HW,2013-03-04 09:04:00,
2013-03-04 01:09:00,35.5,25.6,30.06,ENE,68,0.6,2.5,67,0.00,,,0.00,WUHU216HW,2013-03-04 09:09:00,
2013-03-04 01:15:00,35.5,25.9,30.06,SW,230,0.6,2.5,68,0.00,,,0.00,WUHU216HW,2013-03-04 09:15:00,
2013-03-04 01:20:00,35.6,26.1,30.06,SE,135,0.4,2.0,68,0.00,,,0.00,WUHU216HW,2013-03-04 09:20:00,
2013-03-04 01:26:00,35.5,25.9,30.07,WSW,248,0.4,1.1,68,0.00,,,0.00,WUHU216HW,2013-03-04 09:26:00,
2013-03-04 01:31:00,35.6,26.5,30.07,WSW,248,0.5,1.6,69,0.00,,,0.00,WUHU216HW,2013-03-04 09:31:00,
2013-03-04 01:36:00,35.5,26.3,30.07,WSW,248,0.4,1.6,69,0.00,,,0.00,WUHU216HW,2013-03-04 09:36:00,
2013-03-04 01:42:00,35.5,26.3,30.06,NNW,338,0.4,0.9,69,0.00,,,0.00,WUHU216HW,2013-03-04 09:42:00,
2013-03-04 01:47:00,35.3,26.5,30.06,NNW,338,0.0,0.9,70,0.00,,,0.00,WUHU216HW,2013-03-04 09:47:00,
2013-03-04 01:53:00,35.1,26.3,30.06,NNW,338,0.3,0.4,70,0.00,,,0.00,WUHU216HW,2013-03-04 09:53:00,
2013-03-04 01:58:00,34.9,26.1,30.05,NNW,338,0.7,0.7,70,0.00,,,0.00,WUHU216HW,2013-03-04 09:58:00,
2013-03-04 02:04:00,35.1,25.9,30.05,NNE,23,0.5,1.3,69,0.00,,,0.00,WUHU216HW,2013-03-04 10:04:00,
2013-03-04 02:09:00,35.1,25.9,30.05,NNE,23,0.4,1.1,69,0.00,,,0.00,WUHU216HW,2013-03-04 10:09:00,
2013-03-04 02:15:00,35.1,25.9,30.05,NNE,23,0.8,1.1,69,0.00,,,0.00,WUHU216HW,2013-03-04 10:15:00,
2013-03-04 02:20:00,35.1,25.9,30.04,NNE,23,0.0,1.1,69,0.00,,,0.00,WUHU216HW,2013-03-04 10:20:00,
2013-03-04 02:26:00,35.1,25.9,30.04,NNE,23,0.0,0.7,69,0.00,,,0.00,WUHU216HW,2013-03-04 10:26:00,
2013-03-04 02:31:00,35.1,26.3,30.04,NNE,23,0.0,0.0,70,0.00,,,0.00,WUHU216HW,2013-03-04 10:31:00,
2013-03-04 02:37:00,34.9,25.7,30.04,NNE,23,0.0,0.0,69,0.00,,,0.00,WUHU216HW,2013-03-04 10:37:00,
2013-03-04 02:53:00,34.4,25.6,30.03,NNE,23,0.3,0.4,70,0.00,,,0.00,WUHU216HW,2013-03-04 10:53:00,
2013-03-04 02:58:00,34.2,25.4,30.04,NE,45,0.9,1.6,70,0.00,,,0.00,WUHU216HW,2013-03-04 10:58:00,
2013-03-04 03:04:00,34.0,25.2,30.03,NNE,23,0.4,1.6,70,0.00,,,0.00,WUHU216HW,2013-03-04 11:04:00,
2013-03-04 03:09:00,33.8,24.7,30.03,NNE,23,0.3,1.1,69,0.00,,,0.00,WUHU216HW,2013-03-04 11:09:00,
2013-03-04 03:15:00,33.8,24.7,30.03,ENE,68,0.2,1.1,69,0.00,,,0.00,WUHU216HW,2013-03-04 11:15:00,
2013-03-04 03:20:00,33.7,24.8,30.02,ENE,68,0.0,1.1,70,0.00,,,0.00,WUHU216HW,2013-03-04 11:20:00,
2013-03-04 03:26:00,33.7,24.8,30.02,ENE,68,0.0,0.4,70,0.00,,,0.00,WUHU216HW,2013-03-04 11:26:00,
2013-03-04 03:31:00,33.7,24.8,30.02,East,96,1.4,1.8,70,0.00,,,0.00,WUHU216HW,2013-03-04 11:31:00,
2013-03-04 03:37:00,33.5,24.3,30.02,SSW,203,0.9,1.8,69,0.00,,,0.00,WUHU216HW,2013-03-04 11:37:00,
2013-03-04 03:42:00,33.3,24.2,30.02,SSW,203,0.9,1.1,69,0.00,,,0.00,WUHU216HW,2013-03-04 11:42:00,
2013-03-04 03:48:00,32.9,23.9,30.02,SW,225,0.9,1.3,69,0.00,,,0.00,WUHU216HW,2013-03-04 11:48:00,
2013-03-04 03:53:00,32.8,20.4,30.02,WSW,248,1.9,2.2,60,0.00,,,0.00,WUHU216HW,2013-03-04 11:53:00,
2013-03-04 03:59:00,32.6,21.7,30.02,WSW,248,0.6,2.2,64,0.00,,,0.00,WUHU216HW,2013-03-04 11:59:00,
2013-03-04 04:04:00,32.6,22.4,30.02,WSW,248,0.8,1.1,66,0.00,,,0.00,WUHU216HW,2013-03-04 12:04:00,
2013-03-04 04:10:00,32.4,22.7,30.01,WSW,248,0.4,1.1,67,0.00,,,0.00,WUHU216HW,2013-03-04 12:10:00,
2013-03-04 04:15:00,32.2,22.9,30.02,East,90,0.7,0.9,68,0.00,,,0.00,WUHU216HW,2013-03-04 12:15:00,
2013-03-04 04:21:00,32.0,22.3,30.02,WSW,248,0.9,1.1,67,0.00,,,0.00,WUHU216HW,2013-03-04 12:21:00,
2013-03-04 04:26:00,31.5,21.4,30.02,WSW,241,2.6,2.9,66,0.00,,,0.00,WUHU216HW,2013-03-04 12:26:00,
2013-03-04 04:31:00,31.1,21.1,30.02,SSW,202,2.0,2.9,66,0.00,,,0.00,WUHU216HW,2013-03-04 12:31:00,
2013-03-04 04:37:00,31.0,20.9,30.02,SSW,211,0.9,2.2,66,0.00,,,0.00,WUHU216HW,2013-03-04 12:37:00,
2013-03-04 04:42:00,31.1,20.7,30.02,SW,225,1.6,2.0,65,0.00,,,0.00,WUHU216HW,2013-03-04 12:42:00,
2013-03-04 04:48:00,31.1,21.1,30.01,SW,225,0.3,1.8,66,0.00,,,0.00,WUHU216HW,2013-03-04 12:48:00,
2013-03-04 04:53:00,31.1,21.1,30.02,SW,225,0.2,1.3,66,0.00,,,0.00,WUHU216HW,2013-03-04 12:53:00,
2013-03-04 04:59:00,31.1,20.3,30.02,SW,225,1.1,1.3,64,0.00,,,0.00,WUHU216HW,2013-03-04 12:59:00,
2013-03-04 05:04:00,31.0,20.2,30.01,SW,225,0.9,1.3,64,0.00,,,0.00,WUHU216HW,2013-03-04 13:04:00,
2013-03-04 05:10:00,30.8,20.3,30.01,WSW,248,1.6,1.8,65,0.00,,,0.00,WUHU216HW,2013-03-04 13:10:00,
2013-03-04 05:15:00,30.8,19.6,30.01,WSW,248,0.4,1.8,63,0.00,,,0.00,WUHU216HW,2013-03-04 13:15:00,
2013-03-04 05:21:00,30.8,20.0,30.01,WSW,248,0.4,1.3,64,0.00,,,0.00,WUHU216HW,2013-03-04 13:21:00,
2013-03-04 05:26:00,30.6,20.2,30.01,WSW,248,0.0,0.9,65,0.00,,,0.00,WUHU216HW,2013-03-04 13:26:00,
2013-03-04 05:32:00,30.6,20.2,30.01,WSW,248,0.9,1.1,65,0.00,,,0.00,WUHU216HW,2013-03-04 13:32:00,
2013-03-04 05:37:00,30.6,19.1,30.01,WSW,248,1.4,1.8,62,0.00,,,0.00,WUHU216HW,2013-03-04 13:37:00,
2013-03-04 05:43:00,30.4,20.0,30.01,WSW,248,0.4,1.8,65,0.00,,,0.00,WUHU216HW,2013-03-04 13:43:00,
2013-03-04 05:48:00,30.4,20.0,30.00,WSW,248,0.0,0.4,65,0.00,,,0.00,WUHU216HW,2013-03-04 13:48:00,
2013-03-04 05:54:00,30.2,19.4,30.00,WSW,248,1.0,1.1,64,0.00,,,0.00,WUHU216HW,2013-03-04 13:54:00,
2013-03-04 05:59:00,30.2,19.8,30.00,WSW,248,0.3,1.1,65,0.00,,,0.00,WUHU216HW,2013-03-04 13:59:00,
2013-03-04 06:03:00,30.2,19.8,30.00,WSW,248,0.0,0.7,65,0.00,,,0.00,WUHU216HW,2013-03-04 14:03:00,
2013-03-04 07:00:00,29.3,17.6,30.00,SW,225,0.7,0.7,61,0.00,,,0.00,WUHU216HW,2013-03-04 15:00:00,
2013-03-04 08:00:00,31.5,10.4,30.00,WSW,248,1.3,1.3,41,0.00,,,0.00,WUHU216HW,2013-03-04 16:00:00,
2013-03-04 08:05:00,31.7,8.8,29.99,WSW,248,1.6,1.8,38,0.00,,,0.00,WUHU216HW,2013-03-04 16:05:00,
2013-03-04 08:11:00,31.7,8.8,29.99,WSW,248,1.8,1.8,38,0.00,,,0.00,WUHU216HW,2013-03-04 16:11:00,
2013-03-04 08:16:00,31.9,7.7,29.99,WSW,248,1.6,1.8,36,0.00,,,0.00,WUHU216HW,2013-03-04 16:16:00,
2013-03-04 08:22:00,32.4,6.4,29.99,WSW,248,2.5,2.5,33,0.00,,,0.00,WUHU216HW,2013-03-04 16:22:00,
2013-03-04 08:27:00,32.9,3.3,29.99,WSW,248,0.9,2.9,28,0.00,,,0.00,WUHU216HW,2013-03-04 16:27:00,
2013-03-04 08:32:00,33.5,-1.6,29.99,West,261,1.6,2.9,22,0.00,,,0.00,WUHU216HW,2013-03-04 16:32:00,
2013-03-04 08:38:00,34.0,-1.2,29.99,WSW,248,2.0,2.5,22,0.00,,,0.00,WUHU216HW,2013-03-04 16:38:00,
2013-03-04 08:43:00,34.4,-1.7,29.99,WSW,248,1.1,2.5,21,0.00,,,0.00,WUHU216HW,2013-03-04 16:43:00,
2013-03-04 08:49:00,34.9,0.6,29.99,SW,228,1.3,2.0,23,0.00,,,0.00,WUHU216HW,2013-03-04 16:49:00,
2013-03-04 08:54:00,35.3,2.6,29.99,WSW,248,1.6,2.0,25,0.00,,,0.00,WUHU216HW,2013-03-04 16:54:00,
2013-03-04 09:00:00,35.6,3.8,29.99,WSW,243,1.0,2.0,26,0.00,,,0.00,WUHU216HW,2013-03-04 17:00:00,
2013-03-04 09:05:00,36.0,7.6,29.99,SSE,158,0.0,1.8,30,0.00,,,0.00,WUHU216HW,2013-03-04 17:05:00,
2013-03-04 09:11:00,36.4,11.7,29.98,SE,135,0.9,1.3,36,0.00,,,0.00,WUHU216HW,2013-03-04 17:11:00,
2013-03-04 09:16:00,36.5,15.6,29.98,ESE,113,1.1,1.8,42,0.00,,,0.00,WUHU216HW,2013-03-04 17:16:00,
2013-03-04 09:22:00,37.1,18.1,29.98,SSE,155,0.5,1.8,46,0.00,,,0.00,WUHU216HW,2013-03-04 17:22:00,
2013-03-04 09:27:00,37.4,20.5,29.97,SW,225,0.5,1.8,50,0.00,,,0.00,WUHU216HW,2013-03-04 17:27:00,
2013-03-04 09:33:00,38.0,21.0,29.97,SSE,158,1.3,2.0,50,0.00,,,0.00,WUHU216HW,2013-03-04 17:33:00,
2013-03-04 09:38:00,38.5,28.1,29.97,WSW,238,2.1,2.7,66,0.00,,,0.00,WUHU216HW,2013-03-04 17:38:00,
2013-03-04 09:44:00,38.9,26.9,29.97,SW,218,1.3,2.7,62,0.00,,,0.00,WUHU216HW,2013-03-04 17:44:00,
2013-03-04 09:49:00,39.2,29.9,29.97,NNE,14,0.9,1.8,69,0.00,,,0.00,WUHU216HW,2013-03-04 17:49:00,
2013-03-04 09:55:00,39.8,28.9,29.97,ESE,113,1.8,2.5,65,0.00,,,0.00,WUHU216HW,2013-03-04 17:55:00,
2013-03-04 10:00:00,40.1,30.4,29.97,ESE,113,2.5,3.4,68,0.00,,,0.00,WUHU216HW,2013-03-04 18:00:00,
2013-03-04 10:06:00,40.5,31.2,29.97,East,90,0.4,3.1,69,0.00,,,0.00,WUHU216HW,2013-03-04 18:06:00,
2013-03-04 10:11:00,40.9,32.2,29.96,NE,45,3.4,4.0,71,0.00,,,0.00,WUHU216HW,2013-03-04 18:11:00,
2013-03-04 10:16:00,41.4,33.0,29.96,ENE,68,0.7,4.0,72,0.00,,,0.00,WUHU216HW,2013-03-04 18:16:00,
2013-03-04 10:22:00,42.1,34.1,29.96,SSE,158,2.2,3.1,73,0.00,,,0.00,WUHU216HW,2013-03-04 18:22:00,
2013-03-04 10:27:00,42.8,34.8,29.96,NE,45,3.1,3.1,73,0.00,,,0.00,WUHU216HW,2013-03-04 18:27:00,
2013-03-04 10:33:00,43.0,35.3,29.96,SE,146,2.3,4.5,74,0.00,,,0.00,WUHU216HW,2013-03-04 18:33:00,
2013-03-04 10:38:00,43.6,35.8,29.96,SSE,159,2.3,3.6,74,0.00,,,0.00,WUHU216HW,2013-03-04 18:38:00,
2013-03-04 10:44:00,43.7,36.0,29.96,SE,125,1.0,3.4,74,0.00,,,0.00,WUHU216HW,2013-03-04 18:44:00,
2013-03-04 10:49:00,43.9,36.2,29.96,North,11,1.1,3.6,74,0.00,,,0.00,WUHU216HW,2013-03-04 18:49:00,
2013-03-04 10:55:00,43.9,36.2,29.96,SSE,158,1.8,3.6,74,0.00,,,0.00,WUHU216HW,2013-03-04 18:55:00,
2013-03-04 11:00:00,44.5,36.6,29.96,SE,135,2.0,3.1,74,0.00,,,0.00,WUHU216HW,2013-03-04 19:00:00,
2013-03-04 11:06:00,44.6,36.8,29.96,East,90,4.0,4.3,74,0.00,,,0.00,WUHU216HW,2013-03-04 19:06:00,
2013-03-04 11:11:00,45.0,37.2,29.95,ESE,113,0.9,4.3,74,0.00,,,0.00,WUHU216HW,2013-03-04 19:11:00,
2013-03-04 11:17:00,45.7,37.9,29.95,SSW,211,1.0,4.0,74,0.00,,,0.00,WUHU216HW,2013-03-04 19:17:00,
2013-03-04 11:22:00,45.9,37.7,29.95,SW,225,1.8,1.8,73,0.00,,,0.00,WUHU216HW,2013-03-04 19:22:00,
2013-03-04 11:28:00,46.6,38.1,29.95,SSW,203,4.0,4.5,72,0.00,,,0.00,WUHU216HW,2013-03-04 19:28:00,
2013-03-04 11:33:00,46.8,37.9,29.95,SW,222,1.6,4.5,71,0.00,,,0.00,WUHU216HW,2013-03-04 19:33:00,
2013-03-04 11:38:00,47.2,36.7,29.95,West,270,1.8,3.4,67,0.00,,,0.00,WUHU216HW,2013-03-04 19:38:00,
2013-03-04 11:44:00,47.0,37.0,29.95,WSW,248,2.5,3.4,68,0.00,,,0.00,WUHU216HW,2013-03-04 19:44:00,
2013-03-04 11:49:00,47.2,37.5,29.95,ENE,68,1.8,2.7,69,0.00,,,0.00,WUHU216HW,2013-03-04 19:49:00,
2013-03-04 11:55:00,47.7,37.6,29.95,SSE,158,3.1,3.4,68,0.00,,,0.00,WUHU216HW,2013-03-04 19:55:00,
2013-03-04 12:00:00,48.2,38.2,29.95,SSE,147,2.1,3.4,68,0.00,,,0.00,WUHU216HW,2013-03-04 20:00:00,
2013-03-04 12:06:00,48.4,38.7,29.94,SW,225,2.0,2.5,69,0.00,,,0.00,WUHU216HW,2013-03-04 20:06:00,
2013-03-04 12:11:00,48.6,38.5,29.94,SE,142,2.7,3.8,68,0.00,,,0.00,WUHU216HW,2013-03-04 20:11:00,
2013-03-04 12:17:00,49.1,38.6,29.94,ESE,117,4.0,5.4,67,0.00,,,0.00,WUHU216HW,2013-03-04 20:17:00,
2013-03-04 12:22:00,48.8,37.1,29.93,West,271,1.1,5.4,64,0.00,,,0.00,WUHU216HW,2013-03-04 20:22:00,
2013-03-04 12:28:00,49.0,38.1,29.93,ESE,113,3.4,3.4,66,0.00,,,0.00,WUHU216HW,2013-03-04 20:28:00,
2013-03-04 12:33:00,49.0,37.3,29.93,ESE,113,2.5,3.8,64,0.00,,,0.00,WUHU216HW,2013-03-04 20:33:00,
2013-03-04 12:39:00,49.3,38.4,29.93,East,90,1.3,3.8,66,0.00,,,0.00,WUHU216HW,2013-03-04 20:39:00,
2013-03-04 12:40:00,49.3,38.0,29.92,WSW,248,1.1,3.1,65,0.00,,,0.00,WUHU216HW,2013-03-04 20:40:00,
2013-03-04 13:00:00,50.0,39.1,29.92,SW,225,1.8,1.8,66,0.00,,,0.00,WUHU216HW,2013-03-04 21:00:00,
2013-03-04 14:00:00,51.5,39.2,29.89,SSE,158,0.2,0.2,63,0.00,,,0.00,WUHU216HW,2013-03-04 22:00:00,
2013-03-04 15:00:00,53.6,41.8,29.87,SSE,158,0.7,0.7,64,0.00,,,0.00,WUHU216HW,2013-03-04 23:00:00,
2013-03-04 15:05:00,54.0,40.0,29.87,SSW,203,4.0,4.0,59,0.00,,,0.00,WUHU216HW,2013-03-04 23:05:00,
2013-03-04 15:11:00,54.4,40.8,29.87,SE,136,1.6,4.0,60,0.00,,,0.00,WUHU216HW,2013-03-04 23:11:00,
2013-03-04 15:14:00,54.4,41.2,29.87,ENE,68,2.7,4.3,61,0.00,,,0.00,WUHU216HW,2013-03-04 23:14:00,
2013-03-04 16:00:00,55.1,43.1,29.84,SE,135,0.0,0.0,64,0.00,,,0.00,WUHU216HW,2013-03-05 00:00:00,
2013-03-04 16:05:00,55.1,43.1,29.84,SE,135,0.0,0.0,64,0.00,,,0.00,WUHU216HW,2013-03-05 00:05:00,
2013-03-04 17:00:00,55.6,42.8,29.82,SSE,158,0.2,0.2,62,0.00,,,0.00,WUHU216HW,2013-03-05 01:00:00,
2013-03-04 17:05:00,55.6,42.8,29.82,SSE,158,0.2,0.2,62,0.00,,,0.00,WUHU216HW,2013-03-05 01:05:00,
2013-03-04 18:00:00,50.6,39.6,29.82,South,180,0.7,0.7,66,0.00,,,0.00,WUHU216HW,2013-03-05 02:00:00,
2013-03-04 18:05:00,50.0,39.1,29.81,South,180,1.0,1.3,66,0.00,,,0.00,WUHU216HW,2013-03-05 02:05:00,
2013-03-04 18:10:00,49.3,38.8,29.82,South,180,0.7,1.3,67,0.00,,,0.00,WUHU216HW,2013-03-05 02:10:00,
2013-03-04 18:15:00,48.6,38.5,29.82,South,180,0.5,1.1,68,0.00,,,0.00,WUHU216HW,2013-03-05 02:15:00,
2013-03-04 18:20:00,47.5,38.3,29.82,SSW,197,0.6,1.1,70,0.00,,,0.00,WUHU216HW,2013-03-05 02:20:00,
2013-03-04 18:25:00,46.4,38.0,29.82,SW,225,1.3,1.3,72,0.00,,,0.00,WUHU216HW,2013-03-05 02:25:00,
2013-03-04 18:30:00,45.7,37.3,29.82,WSW,248,1.0,1.3,72,0.00,,,0.00,WUHU216HW,2013-03-05 02:30:00,
2013-03-04 18:35:00,45.5,37.1,29.82,WSW,248,1.2,1.3,72,0.00,,,0.00,WUHU216HW,2013-03-05 02:35:00,
2013-03-04 18:40:00,45.0,36.8,29.82,SW,228,1.6,2.0,73,0.00,,,0.00,WUHU216HW,2013-03-05 02:40:00,
2013-03-04 18:45:00,45.0,36.8,29.82,WSW,240,2.6,3.4,73,0.00,,,0.00,WUHU216HW,2013-03-05 02:45:00,
2013-03-04 18:50:00,45.4,37.5,29.81,West,270,4.0,4.0,74,0.00,,,0.00,WUHU216HW,2013-03-05 02:50:00,
2013-03-04 18:55:00,45.4,37.5,29.81,WSW,240,2.2,4.0,74,0.00,,,0.00,WUHU216HW,2013-03-05 02:55:00,
2013-03-04 19:00:00,45.5,37.4,29.81,SSW,201,2.0,4.0,73,0.00,,,0.00,WUHU216HW,2013-03-05 03:00:00,
2013-03-04 19:05:00,45.4,37.2,29.81,SW,225,4.0,4.0,73,0.00,,,0.00,WUHU216HW,2013-03-05 03:05:00,
2013-03-04 19:11:00,45.2,37.4,29.81,SW,228,2.2,4.0,74,0.00,,,0.00,WUHU216HW,2013-03-05 03:11:00,
2013-03-04 19:16:00,45.0,37.2,29.81,WSW,237,2.2,3.6,74,0.00,,,0.00,WUHU216HW,2013-03-05 03:16:00,
2013-03-04 19:21:00,44.6,36.8,29.81,WSW,248,2.5,2.7,74,0.00,,,0.00,WUHU216HW,2013-03-05 03:21:00,
2013-03-04 19:26:00,44.5,36.6,29.81,WSW,242,2.2,2.7,74,0.00,,,0.00,WUHU216HW,2013-03-05 03:26:00,
2013-03-04 19:31:00,44.5,36.6,29.81,SW,231,2.5,3.4,74,0.00,,,0.00,WUHU216HW,2013-03-05 03:31:00,
2013-03-04 19:36:00,44.5,36.6,29.81,SSW,203,1.8,3.4,74,0.00,,,0.00,WUHU216HW,2013-03-05 03:36:00,
2013-03-04 19:41:00,44.3,36.5,29.81,SSW,203,2.2,3.1,74,0.00,,,0.00,WUHU216HW,2013-03-05 03:41:00,
2013-03-04 19:46:00,44.1,36.4,29.81,SSW,203,2.5,2.9,74,0.00,,,0.00,WUHU216HW,2013-03-05 03:46:00,
2013-03-04 19:51:00,43.9,36.2,29.81,SW,218,2.7,3.4,74,0.00,,,0.00,WUHU216HW,2013-03-05 03:51:00,
2013-03-04 19:56:00,43.7,35.6,29.81,SW,225,3.4,4.5,73,0.00,,,0.00,WUHU216HW,2013-03-05 03:56:00,
2013-03-04 20:01:00,43.9,35.5,29.81,SW,231,4.4,5.8,72,0.00,,,0.00,WUHU216HW,2013-03-05 04:01:00,
2013-03-04 20:06:00,43.9,35.8,29.81,SW,225,3.4,5.8,73,0.00,,,0.00,WUHU216HW,2013-03-05 04:06:00,
2013-03-04 20:11:00,43.9,34.5,29.81,WSW,248,5.1,5.1,69,0.00,,,0.00,WUHU216HW,2013-03-05 04:11:00,
2013-03-04 20:16:00,43.9,32.5,29.81,WSW,241,4.2,5.1,64,0.00,,,0.00,WUHU216HW,2013-03-05 04:16:00,
2013-03-04 20:21:00,43.9,33.7,29.81,WSW,248,3.6,5.1,67,0.00,,,0.00,WUHU216HW,2013-03-05 04:21:00,
2013-03-04 20:26:00,43.9,32.5,29.81,WSW,248,4.7,4.7,64,0.00,,,0.00,WUHU216HW,2013-03-05 04:26:00,
2013-03-04 20:32:00,44.1,34.6,29.81,SW,225,2.9,4.7,69,0.00,,,0.00,WUHU216HW,2013-03-05 04:32:00,
2013-03-04 20:37:00,43.9,35.2,29.81,SSW,203,2.0,4.3,71,0.00,,,0.00,WUHU216HW,2013-03-05 04:37:00,
2013-03-04 20:42:00,43.6,34.8,29.81,SW,225,1.8,2.9,71,0.00,,,0.00,WUHU216HW,2013-03-05 04:42:00,
2013-03-04 20:47:00,42.8,34.2,29.81,SW,225,2.2,2.5,71,0.00,,,0.00,WUHU216HW,2013-03-05 04:47:00,
2013-03-04 20:52:00,42.1,33.5,29.81,SW,225,1.8,2.2,71,0.00,,,0.00,WUHU216HW,2013-03-05 04:52:00,
2013-03-04 20:57:00,42.1,33.5,29.81,WSW,248,1.6,2.2,71,0.00,,,0.00,WUHU216HW,2013-03-05 04:57:00,
2013-03-04 21:00:00,41.9,32.9,29.81,West,270,1.3,2.0,70,0.00,,,0.00,WUHU216HW,2013-03-05 05:00:00,
2013-03-04 21:01:00,41.9,32.9,29.81,SW,225,1.1,1.8,70,0.00,,,0.00,WUHU216HW,2013-03-05 05:01:00,
2013-03-04 21:06:00,41.8,33.1,29.81,SSW,203,1.1,1.8,71,0.00,,,0.00,WUHU216HW,2013-03-05 05:06:00,
2013-03-04 21:11:00,41.6,32.2,29.81,WSW,248,1.2,1.8,69,0.00,,,0.00,WUHU216HW,2013-03-05 05:11:00,
2013-03-04 21:16:00,41.4,32.8,29.81,WSW,248,1.0,1.6,71,0.00,,,0.00,WUHU216HW,2013-03-05 05:16:00,
2013-03-04 21:21:00,41.4,32.8,29.80,SW,225,0.9,1.8,71,0.00,,,0.00,WUHU216HW,2013-03-05 05:21:00,
2013-03-04 21:26:00,40.7,31.7,29.80,SW,225,1.1,1.8,70,0.00,,,0.00,WUHU216HW,2013-03-05 05:26:00,
2013-03-04 21:32:00,40.1,31.5,29.80,SW,234,1.6,2.2,71,0.00,,,0.00,WUHU216HW,2013-03-05 05:32:00,
2013-03-04 21:37:00,40.0,30.3,29.80,SSW,203,1.2,2.5,68,0.00,,,0.00,WUHU216HW,2013-03-05 05:37:00,
2013-03-04 21:42:00,39.8,30.8,29.80,SSW,203,1.8,2.5,70,0.00,,,0.00,WUHU216HW,2013-03-05 05:42:00,
2013-03-04 21:47:00,39.8,30.8,29.80,South,180,0.7,2.0,70,0.00,,,0.00,WUHU216HW,2013-03-05 05:47:00,
2013-03-04 21:52:00,39.6,31.0,29.80,South,180,0.0,1.8,71,0.00,,,0.00,WUHU216HW,2013-03-05 05:52:00,
2013-03-04 21:57:00,39.4,30.8,29.80,SW,225,0.6,1.1,71,0.00,,,0.00,WUHU216HW,2013-03-05 05:57:00,
2013-03-04 22:02:00,39.2,30.6,29.80,SW,225,0.4,1.1,71,0.00,,,0.00,WUHU216HW,2013-03-05 06:02:00,
2013-03-04 22:07:00,39.1,29.7,29.80,SW,225,0.9,1.1,69,0.00,,,0.00,WUHU216HW,2013-03-05 06:07:00,
2013-03-04 22:12:00,38.9,29.9,29.79,SSW,204,1.3,1.6,70,0.00,,,0.00,WUHU216HW,2013-03-05 06:12:00,
2013-03-04 22:17:00,38.9,29.2,29.80,SW,225,0.7,1.6,68,0.00,,,0.00,WUHU216HW,2013-03-05 06:17:00,
2013-03-04 22:22:00,38.9,29.2,29.80,SW,225,0.7,1.1,68,0.00,,,0.00,WUHU216HW,2013-03-05 06:22:00,
2013-03-04 23:00:00,37.3,25.5,29.79,SW,225,2.0,2.0,62,0.00,,,0.00,WUHU216HW,2013-03-05 07:00:00,
2013-03-04 23:05:00,37.4,26.4,29.79,WSW,238,1.0,2.0,64,0.00,,,0.00,WUHU216HW,2013-03-05 07:05:00,
2013-03-04 23:10:00,37.4,26.7,29.79,SW,225,0.4,2.0,65,0.00,,,0.00,WUHU216HW,2013-03-05 07:10:00,
2013-03-04 23:15:00,37.3,27.3,29.78,SW,225,0.4,0.7,67,0.00,,,0.00,WUHU216HW,2013-03-05 07:15:00,
2013-03-04 23:20:00,37.1,27.2,29.78,SW,225,0.4,0.4,67,0.00,,,0.00,WUHU216HW,2013-03-05 07:20:00,
2013-03-04 23:25:00,37.1,27.2,29.78,SW,225,0.3,0.7,67,0.00,,,0.00,WUHU216HW,2013-03-05 07:25:00,
2013-03-04 23:30:00,36.9,27.0,29.78,SW,225,0.0,0.7,67,0.00,,,0.00,WUHU216HW,2013-03-05 07:30:00,
2013-03-04 23:35:00,36.9,27.4,29.78,SW,225,0.4,0.7,68,0.00,,,0.00,WUHU216HW,2013-03-05 07:35:00,
2013-03-04 23:40:00,36.7,27.2,29.78,SW,225,0.0,0.7,68,0.00,,,0.00,WUHU216HW,2013-03-05 07:40:00,
2013-03-04 23:45:00,36.7,27.2,29.78,SW,225,0.0,0.0,68,0.00,,,0.00,WUHU216HW,2013-03-05 07:45:00,
2013-03-04 23:50:00,36.7,27.2,29.78,SW,225,0.0,0.0,68,0.00,,,0.00,WUHU216HW,2013-03-05 07:50:00,
2013-03-04 23:55:00,36.7,26.8,29.78,SW,225,0.4,0.4,67,0.00,,,0.00,WUHU216HW,2013-03-05 07:55:00,